Devine, Texas
Current Conditions -  °F | °C
As of 9:35 PM on Monday 22 Dec 2014 (Local Time) from KCVB Reporting Station
Clear Clear  
Wind Chill: 55°   Ceiling: Unl
Heat Index: 55°   Visibility: 7mi
Dew Point: 50°   Wind: 3mph
Humidity: 83%   Direction: 40°NE
Pressure: 29.67"   Gusts: NA
Location:  29.14°N, 98.91°W
Report Text: KCVB 230335Z AUTO 04003KT 7SM CLR 13/10 A2967 RMK AO2 T01270098
Loading
Personal Weather Stations






























Interactive Weather Map New forecast layout! Learn more

10-Day Weather Forecast

Advertisements
Track Severe Weather on mobile